首页
METAR-TAF:

METAR-TAF

机场 :

Fort Nelson, 不列颠哥伦比亚, 加拿大

纬度: 58-50N, 经度: 122-35W, 海拔: 382米

当前天气观测

该预报发布于14分钟前的22:06 UTC
风速8节,风向西转西北,有时为16节阵风,在西之间变化
温度 -5°C
湿度 53%
气压 1034 hPa
能見度: 24.1公里
多云层高于3500英尺
多云层高于9500英尺
小雪

METAR: CYYE 212206Z 30008G16KT 270V350 15SM -SN BKN035 BKN095 M05/M13 A3053 RMK SC6AC1 CU ASOCTD CIG RAG SLP371

时间: 15:20 (22:20 UTC)

预报

该预报发布于3小时和42分钟前的18:38 UTC
预报有效从21日的 19点(UTC)到 22日的 07点(UTC)
风速10节,风向西北
能見度: 10公里
散云层高于6000英尺
短暂存在
从 21日的 19点(UTC)到 22日的 07点(UTC)
能見度: 8.0公里
阴天层高于4000英尺
小雪

TAF: CYYE 211838Z 2119/2207 32010KT P6SM SCT060 TEMPO 2119/2207 5SM -SN OVC040 RMK NXT FCST BY 220100Z

超过4000个机场的气象观测和天气预报(METAR&TAF报告)。

可查询的气象台以黄色和红色小点在地图上表示。

将鼠标移到小点上方,可查看气象台名称。

然后点击查看天气观测和预报。

如需切换地图:点击带黑十字的绿色按钮放大地图;点击带横线的绿色按钮缩小地图;或者点击绿色箭头查看邻近地区的地图。


METAR-TAF: